createdAt,value
2019-04-14T00:02:44.731Z,59.00
2019-04-14T00:06:50.456Z,58.10
2019-04-14T00:10:57.262Z,59.60
2019-04-14T00:15:02.846Z,59.80
2019-04-14T00:19:08.758Z,59.00
2019-04-14T00:23:15.169Z,58.70
2019-04-14T00:27:21.430Z,59.00
2019-04-14T00:31:28.399Z,59.20
2019-04-14T00:35:43.447Z,59.00
2019-04-14T00:39:51.537Z,59.00
2019-04-14T00:44:10.802Z,59.10
2019-04-14T00:48:21.024Z,58.70
2019-04-14T00:52:27.563Z,58.30
2019-04-14T00:56:34.307Z,58.40
2019-04-14T01:00:40.824Z,58.50
2019-04-14T01:04:46.957Z,59.40
2019-04-14T01:08:53.358Z,59.30
2019-04-14T01:12:58.823Z,58.60
2019-04-14T01:17:04.799Z,60.40
2019-04-14T01:21:11.267Z,60.40
2019-04-14T01:25:19.257Z,59.50
2019-04-14T01:29:25.510Z,59.60
2019-04-14T01:33:31.617Z,59.40
2019-04-14T01:37:37.644Z,59.30
2019-04-14T01:41:43.231Z,59.30
2019-04-14T01:45:59.601Z,59.30
2019-04-14T01:49:57.279Z,59.70
2019-04-14T01:54:43.052Z,60.00
2019-04-14T01:58:51.898Z,59.90
2019-04-14T02:02:57.650Z,60.00
2019-04-14T02:07:05.892Z,59.20
2019-04-14T02:11:11.703Z,59.10
2019-04-14T02:15:17.932Z,61.40
2019-04-14T02:19:24.198Z,59.50
2019-04-14T02:23:30.227Z,61.00
2019-04-14T02:27:36.066Z,59.50
2019-04-14T02:32:11.322Z,61.30
2019-04-14T02:36:26.989Z,61.80
2019-04-14T02:40:27.360Z,60.60
2019-04-14T02:44:38.024Z,61.60
2019-04-14T02:48:44.248Z,60.80
2019-04-14T02:52:58.588Z,61.70
2019-04-14T02:56:53.060Z,63.50
2019-04-14T03:05:08.110Z,63.60
2019-04-14T03:09:38.832Z,63.00
2019-04-14T03:13:29.362Z,64.60
2019-04-14T03:17:58.308Z,63.60
2019-04-14T03:22:12.293Z,63.90
2019-04-14T03:26:38.809Z,62.20
2019-04-14T03:43:13.224Z,60.60
2019-04-14T03:47:23.776Z,63.30
2019-04-14T03:55:16.959Z,63.00
2019-04-14T03:59:10.644Z,61.40
2019-04-14T04:03:17.358Z,61.50
2019-04-14T04:07:23.532Z,65.40
2019-04-14T04:11:30.131Z,61.10
2019-04-14T04:15:37.198Z,61.20
2019-04-14T04:20:13.861Z,63.80
2019-04-14T04:24:37.010Z,64.20
2019-04-14T04:28:54.057Z,62.30
2019-04-14T04:33:22.016Z,61.30
2019-04-14T04:37:49.829Z,62.10
2019-04-14T04:41:55.780Z,61.10
2019-04-14T04:46:02.659Z,61.80
2019-04-14T04:50:08.638Z,62.20
2019-04-14T04:54:14.678Z,64.60
2019-04-14T04:58:21.545Z,64.00
2019-04-14T05:02:28.690Z,64.40
2019-04-14T05:07:09.932Z,62.10
2019-04-14T05:11:21.309Z,62.50
2019-04-14T05:15:57.672Z,62.90
2019-04-14T05:20:05.117Z,62.00
2019-04-14T05:24:11.437Z,65.00
2019-04-14T05:28:24.411Z,63.80
2019-04-14T05:32:34.737Z,63.40
2019-04-14T05:36:41.153Z,64.40
2019-04-14T05:40:47.497Z,64.60
2019-04-14T05:44:53.593Z,63.30
2019-04-14T05:48:59.964Z,64.40
2019-04-14T05:53:06.504Z,64.90
2019-04-14T05:57:13.293Z,65.90
2019-04-14T06:01:20.331Z,62.80
2019-04-14T06:05:28.008Z,63.60
2019-04-14T06:09:33.656Z,63.70
2019-04-14T06:13:39.498Z,65.80
2019-04-14T06:17:45.219Z,63.30
2019-04-14T06:21:51.104Z,63.30
2019-04-14T06:25:56.964Z,66.50
2019-04-14T06:30:18.951Z,62.50
2019-04-14T06:34:43.544Z,64.70
2019-04-14T06:38:52.527Z,65.20
2019-04-14T06:42:59.921Z,65.50
2019-04-14T06:47:08.009Z,63.70
2019-04-14T06:51:13.693Z,65.80
2019-04-14T06:55:19.738Z,64.40
2019-04-14T06:59:25.403Z,65.90
2019-04-14T07:03:30.992Z,62.90
2019-04-14T07:07:36.620Z,64.40
2019-04-14T07:11:42.879Z,67.00
2019-04-14T07:15:48.617Z,63.70
2019-04-14T07:20:01.818Z,62.80
2019-04-14T07:24:02.200Z,63.00
2019-04-14T07:28:07.919Z,64.60
2019-04-14T07:32:28.886Z,65.70
2019-04-14T07:36:59.926Z,66.00
2019-04-14T07:41:37.646Z,65.30
2019-04-14T07:46:04.899Z,63.80
2019-04-14T07:50:20.829Z,65.90
2019-04-14T07:54:41.255Z,66.00
2019-04-14T07:59:21.163Z,65.70
2019-04-14T08:03:44.722Z,64.70
2019-04-14T08:07:51.495Z,65.50
2019-04-14T08:11:57.232Z,65.00
2019-04-14T08:16:03.076Z,63.20
2019-04-14T08:20:08.722Z,62.60
2019-04-14T08:24:14.357Z,62.80
2019-04-14T08:28:21.344Z,64.50
2019-04-14T08:32:27.173Z,65.00
2019-04-14T08:36:33.365Z,64.50
2019-04-14T08:40:39.077Z,62.70
2019-04-14T08:44:49.938Z,63.70
2019-04-14T08:49:00.432Z,63.40
2019-04-14T08:53:23.711Z,66.80
2019-04-14T08:57:48.288Z,64.70
2019-04-14T09:02:05.455Z,63.90
2019-04-14T09:06:28.492Z,69.10
2019-04-14T09:10:38.006Z,66.50
2019-04-14T09:14:55.961Z,66.30
2019-04-14T09:18:53.513Z,68.60
2019-04-14T09:22:58.649Z,64.90
2019-04-14T09:27:04.605Z,69.70
2019-04-14T09:31:10.224Z,65.80
2019-04-14T09:35:16.846Z,65.30
2019-04-14T09:39:23.457Z,64.50
2019-04-14T09:43:29.449Z,66.60
2019-04-14T09:47:35.773Z,71.80
2019-04-14T09:51:41.473Z,66.00
2019-04-14T09:55:47.400Z,70.20
2019-04-14T09:59:53.245Z,68.60
2019-04-14T10:03:58.973Z,77.30
2019-04-14T10:08:04.610Z,66.30
2019-04-14T10:12:10.237Z,74.20
2019-04-14T10:16:16.045Z,73.80
2019-04-14T10:20:21.830Z,74.00
2019-04-14T10:24:27.440Z,68.80
2019-04-14T10:28:33.080Z,68.60
2019-04-14T10:32:39.748Z,69.10
2019-04-14T10:36:45.583Z,71.60
2019-04-14T10:40:51.558Z,70.20
2019-04-14T10:44:57.291Z,71.90
2019-04-14T10:49:03.128Z,71.60
2019-04-14T10:53:08.797Z,66.60
2019-04-14T10:57:15.017Z,66.80
2019-04-14T11:01:20.843Z,68.30
2019-04-14T11:05:29.150Z,68.00
2019-04-14T11:09:34.935Z,66.70
2019-04-14T11:13:40.589Z,67.00
2019-04-14T11:17:46.260Z,67.70
2019-04-14T11:21:52.006Z,67.70
2019-04-14T11:25:57.755Z,67.50
2019-04-14T11:30:03.914Z,68.10
2019-04-14T11:34:09.935Z,65.90
2019-04-14T11:38:37.410Z,66.60
2019-04-14T11:42:52.308Z,66.90
2019-04-14T11:46:52.022Z,67.00
2019-04-14T11:50:57.610Z,65.60
2019-04-14T11:55:03.282Z,65.80
2019-04-14T11:59:08.982Z,67.00
2019-04-14T12:03:25.246Z,65.70
2019-04-14T12:07:40.818Z,67.50
2019-04-14T12:11:46.776Z,68.70
2019-04-14T12:15:52.508Z,69.20
2019-04-14T12:19:58.480Z,68.80
2019-04-14T12:24:04.143Z,68.90
2019-04-14T12:28:09.810Z,66.60
2019-04-14T12:32:15.696Z,65.90
2019-04-14T12:36:21.396Z,67.10
2019-04-14T12:40:27.118Z,68.00
2019-04-14T12:45:00.676Z,66.20
2019-04-14T12:49:11.257Z,68.30
2019-04-14T12:53:16.999Z,68.60
2019-04-14T12:57:40.413Z,64.80
2019-04-14T13:02:06.363Z,67.20
2019-04-14T13:06:12.440Z,66.50
2019-04-14T13:10:18.097Z,67.00
2019-04-14T13:14:23.717Z,65.50
2019-04-14T13:18:29.424Z,63.80
2019-04-14T13:22:36.626Z,64.20
2019-04-14T13:26:42.737Z,65.40
2019-04-14T13:30:50.134Z,64.20
2019-04-14T13:34:58.022Z,64.10
2019-04-14T13:39:05.217Z,62.00
2019-04-14T13:43:12.364Z,64.00
2019-04-14T13:47:18.314Z,63.40
2019-04-14T13:51:24.415Z,63.90
2019-04-14T13:55:30.220Z,63.30
2019-04-14T13:59:35.967Z,66.30
2019-04-14T14:03:41.588Z,65.80
2019-04-14T14:07:48.324Z,62.30
2019-04-14T14:12:12.798Z,63.80
2019-04-14T14:16:55.626Z,62.00
2019-04-14T14:21:26.041Z,63.00
2019-04-14T14:25:36.494Z,63.40
2019-04-14T14:29:41.012Z,62.70
2019-04-14T14:33:46.557Z,62.20
2019-04-14T14:37:52.287Z,61.60
2019-04-14T14:41:57.935Z,63.80
2019-04-14T14:46:23.504Z,62.60
2019-04-14T14:50:35.031Z,62.90
2019-04-14T14:54:40.614Z,62.60
2019-04-14T14:58:46.451Z,63.10
2019-04-14T15:02:52.258Z,61.70
2019-04-14T15:06:58.065Z,62.60
2019-04-14T15:11:04.342Z,61.80
2019-04-14T15:15:11.056Z,61.60
2019-04-14T15:19:16.933Z,61.20
2019-04-14T15:23:25.076Z,61.60
2019-04-14T15:27:30.471Z,61.40
2019-04-14T15:31:36.164Z,63.40
2019-04-14T15:35:42.350Z,62.50
2019-04-14T15:39:47.967Z,60.90
2019-04-14T15:43:53.749Z,61.50
2019-04-14T15:47:59.521Z,62.20
2019-04-14T15:52:05.138Z,61.30
2019-04-14T15:56:13.559Z,62.70
2019-04-14T16:00:37.030Z,63.00
2019-04-14T16:04:49.528Z,61.80
2019-04-14T16:09:17.146Z,62.60
2019-04-14T16:13:44.707Z,62.70
2019-04-14T16:18:11.573Z,62.40
2019-04-14T16:22:19.910Z,62.30
2019-04-14T16:26:43.072Z,62.30
2019-04-14T16:31:13.574Z,62.70
2019-04-14T16:35:23.264Z,62.30
2019-04-14T16:39:29.098Z,64.20
2019-04-14T16:43:35.258Z,62.00
2019-04-14T16:47:41.014Z,63.10
2019-04-14T16:51:53.906Z,62.10
2019-04-14T16:56:21.347Z,61.90
2019-04-14T17:00:32.883Z,61.40
2019-04-14T17:04:38.727Z,63.30
2019-04-14T17:08:46.170Z,62.50
2019-04-14T17:12:51.896Z,63.80
2019-04-14T17:17:28.599Z,63.80
2019-04-14T17:22:05.348Z,62.60
2019-04-14T17:26:22.781Z,63.30
2019-04-14T17:30:50.320Z,62.40
2019-04-14T17:35:08.084Z,63.60
2019-04-14T17:39:36.917Z,63.80
2019-04-14T17:44:08.077Z,63.60
2019-04-14T17:48:38.548Z,63.40
2019-04-14T17:52:48.340Z,63.60
2019-04-14T17:57:08.067Z,62.80
2019-04-14T18:01:37.642Z,65.20
2019-04-14T18:05:52.767Z,64.00
2019-04-14T18:10:32.727Z,63.50
2019-04-14T18:14:50.338Z,65.00
2019-04-14T18:19:13.386Z,66.00
2019-04-14T18:23:19.107Z,65.00
2019-04-14T18:27:25.062Z,67.20
2019-04-14T18:31:40.338Z,66.80
2019-04-14T18:35:56.839Z,66.00
2019-04-14T18:40:08.260Z,66.10
2019-04-14T18:44:32.604Z,65.40
2019-04-14T18:48:55.513Z,66.70
2019-04-14T18:53:25.796Z,65.90
2019-04-14T18:57:49.279Z,66.50
2019-04-14T19:01:55.353Z,65.20
2019-04-14T19:06:01.162Z,66.10
2019-04-14T19:10:08.038Z,66.70
2019-04-14T19:14:17.754Z,65.50
2019-04-14T19:18:31.825Z,65.60
2019-04-14T19:22:40.529Z,66.20
2019-04-14T19:26:47.490Z,67.90
2019-04-14T19:30:53.224Z,67.10
2019-04-14T19:34:59.638Z,70.00
2019-04-14T19:39:09.183Z,67.00
2019-04-14T19:43:23.559Z,68.50
2019-04-14T19:47:23.239Z,68.60
2019-04-14T19:51:28.990Z,69.10
2019-04-14T19:55:37.136Z,69.20
2019-04-14T19:59:42.075Z,69.80
2019-04-14T20:03:47.820Z,67.50
2019-04-14T20:07:54.093Z,68.60
2019-04-14T20:11:59.932Z,69.50
2019-04-14T20:16:24.563Z,68.60
2019-04-14T20:21:07.669Z,69.70
2019-04-14T20:25:34.187Z,68.80
2019-04-14T20:29:43.618Z,70.60
2019-04-14T20:33:51.853Z,69.30
2019-04-14T20:37:58.059Z,69.10
2019-04-14T20:42:03.952Z,68.70
2019-04-14T20:46:10.104Z,69.70
2019-04-14T20:50:16.916Z,69.40
2019-04-14T20:54:22.717Z,70.20
2019-04-14T20:58:28.373Z,68.60
2019-04-14T21:02:44.000Z,70.90
2019-04-14T21:07:04.442Z,70.40
2019-04-14T21:11:15.855Z,72.30
2019-04-14T21:15:46.529Z,71.40
2019-04-14T21:20:13.913Z,70.00
2019-04-14T21:24:33.338Z,69.10
2019-04-14T21:28:48.060Z,69.40
2019-04-14T21:33:03.883Z,71.10
2019-04-14T21:37:33.034Z,70.20
2019-04-14T21:41:39.694Z,69.20
2019-04-14T21:45:45.357Z,70.00
2019-04-14T21:49:51.086Z,70.40
2019-04-14T21:53:56.790Z,67.30
2019-04-14T21:58:21.338Z,69.00
2019-04-14T22:02:44.515Z,72.90
2019-04-14T22:06:51.400Z,74.30
2019-04-14T22:11:00.241Z,73.20
2019-04-14T22:15:06.286Z,72.70
2019-04-14T22:19:11.939Z,72.20
2019-04-14T22:23:17.811Z,72.70
2019-04-14T22:27:24.868Z,70.40
2019-04-14T22:31:30.550Z,72.30
2019-04-14T22:35:36.323Z,71.70
2019-04-14T22:39:44.578Z,70.90
2019-04-14T22:43:51.653Z,73.90
2019-04-14T22:47:57.432Z,71.80
2019-04-14T22:52:03.181Z,72.60
2019-04-14T22:56:08.881Z,68.80
2019-04-14T23:00:21.181Z,70.10
2019-04-14T23:04:53.033Z,70.80
2019-04-14T23:09:20.338Z,69.30
2019-04-14T23:13:47.628Z,72.00
2019-04-14T23:18:04.544Z,75.50
2019-04-14T23:22:32.117Z,75.00
2019-04-14T23:26:37.774Z,71.10
2019-04-14T23:30:43.696Z,74.30
2019-04-14T23:34:51.430Z,73.50
2019-04-14T23:38:57.062Z,74.20
2019-04-14T23:43:02.785Z,73.30
2019-04-14T23:47:08.547Z,72.00
2019-04-14T23:51:15.536Z,73.50
2019-04-14T23:55:21.385Z,71.50
2019-04-14T23:59:27.052Z,74.80
